Latest Weather Observations for Lord Howe Island Windy Point

IDN60801

Issued at 10:23 am EST Tuesday 26 May 2020 (issued every 10 minutes, with the page automatically refreshed every 10 minutes)

About weather observations | Map of weather stations | Latest weather observations for NSW | Other Formats
Station Details ID: 200715 Name: LORD HOWE ISLAND WINDY POINT Lat: -31.54 Lon: 159.07 Height: 4.0 m
Data from the previous 72 hours. | See also: Recent months at Lord Howe Island Windy Point
Date/Time
EST
Temp
°C
App
Temp
°C
Dew
Point
°C
Rel
Hum
%
Delta-T
°C
Wind Press
QNH
hPa
Press
MSL
hPa
Rain since
9am
mm
Dir  Spd
km/h
Gust
km/h
Spd
kts
Gust
kts
26/10:00am - - - - - NW 24 30 13 16 - - -
26/09:30am - - - - - NW 22 30 12 16 - - -
26/09:00am - - - - - NW 22 28 12 15 - - -
26/08:30am - - - - - NW 24 32 13 17 - - -
26/08:00am - - - - - NW 24 30 13 16 - - -
26/07:30am - - - - - NW 24 32 13 17 - - -
26/07:00am - - - - - NW 20 28 11 15 - - -
26/06:30am - - - - - NW 19 28 10 15 - - -
26/06:00am - - - - - NW 22 30 12 16 - - -
26/05:30am - - - - - NW 19 26 10 14 - - -
26/05:00am - - - - - NW 22 30 12 16 - - -
26/04:30am - - - - - NW 22 30 12 16 - - -
26/04:00am - - - - - NW 20 26 11 14 - - -
26/03:30am - - - - - NW 22 30 12 16 - - -
26/03:00am - - - - - NW 22 28 12 15 - - -
26/02:30am - - - - - WNW 20 30 11 16 - - -
26/02:00am - - - - - NW 26 33 14 18 - - -
26/01:30am - - - - - NW 24 32 13 17 - - -
26/01:00am - - - - - NW 17 26 9 14 - - -
26/12:30am - - - - - WNW 24 30 13 16 - - -
26/12:00am - - - - - WNW 20 30 11 16 - - -
 
Date/Time
EST
Temp
°C
App
Temp
°C
Dew
Point
°C
Rel
Hum
%
Delta-T
°C
Wind Press
QNH
hPa
Press
MSL
hPa
Rain since
9am
mm
Dir  Spd
km/h
Gust
km/h
Spd
kts
Gust
kts
25/11:30pm - - - - - WNW 24 30 13 16 - - -
25/11:00pm - - - - - WNW 26 30 14 16 - - -
25/10:30pm - - - - - WNW 28 35 15 19 - - -
25/10:00pm - - - - - WNW 26 33 14 18 - - -
25/09:30pm - - - - - W 30 37 16 20 - - -
25/09:00pm - - - - - W 30 33 16 18 - - -
25/08:30pm - - - - - W 33 39 18 21 - - -
25/08:00pm - - - - - WNW 33 43 18 23 - - -
25/07:30pm - - - - - W 33 37 18 20 - - -
25/07:00pm - - - - - W 33 39 18 21 - - -
25/06:30pm - - - - - W 33 39 18 21 - - -
25/06:00pm - - - - - W 35 39 19 21 - - -
25/05:33pm - - - - - W 35 54 19 29 - - -
25/05:30pm - - - - - W 39 54 21 29 - - -
25/05:26pm - - - - - W 35 54 19 29 - - -
25/05:00pm - - - - - W 32 37 17 20 - - -
25/04:30pm - - - - - W 32 39 17 21 - - -
25/04:00pm - - - - - W 30 35 16 19 - - -
25/03:30pm - - - - - WNW 26 32 14 17 - - -
25/03:00pm - - - - - W 28 32 15 17 - - -
25/02:30pm - - - - - W 28 33 15 18 - - -
25/02:00pm - - - - - W 30 33 16 18 - - -
25/01:30pm - - - - - WSW 28 32 15 17 - - -
25/01:00pm - - - - - WSW 26 33 14 18 - - -
25/12:30pm - - - - - W 24 28 13 15 - - -
25/12:00pm - - - - - WSW 19 26 10 14 - - -
25/11:30am - - - - - SW 15 20 8 11 - - -
25/11:00am - - - - - WSW 28 37 15 20 - - -
25/10:30am - - - - - WSW 22 26 12 14 - - -
25/10:00am - - - - - WSW 24 28 13 15 - - -
25/09:30am - - - - - WSW 20 24 11 13 - - -
25/09:00am - - - - - WSW 24 28 13 15 - - -
25/08:30am - - - - - SW 17 20 9 11 - - -
25/08:00am - - - - - WSW 20 22 11 12 - - -
25/07:30am - - - - - WSW 24 28 13 15 - - -
25/07:00am - - - - - WSW 19 28 10 15 - - -
25/06:30am - - - - - WSW 26 39 14 21 - - -
25/06:00am - - - - - W 19 22 10 12 - - -
25/05:30am - - - - - W 19 22 10 12 - - -
25/05:00am - - - - - WSW 24 30 13 16 - - -
25/04:30am - - - - - W 22 26 12 14 - - -
25/04:00am - - - - - WSW 28 32 15 17 - - -
25/03:30am - - - - - W 26 30 14 16 - - -
25/03:00am - - - - - W 24 30 13 16 - - -
25/02:30am - - - - - W 26 30 14 16 - - -
25/02:00am - - - - - W 15 19 8 10 - - -
25/01:30am - - - - - WNW 26 33 14 18 - - -
25/01:00am - - - - - NW 26 33 14 18 - - -
25/12:30am - - - - - NW 24 33 13 18 - - -
25/12:00am - - - - - NW 24 35 13 19 - - -
 
Date/Time
EST
Temp
°C
App
Temp
°C
Dew
Point
°C
Rel
Hum
%
Delta-T
°C
Wind Press
QNH
hPa
Press
MSL
hPa
Rain since
9am
mm
Dir  Spd
km/h
Gust
km/h
Spd
kts
Gust
kts
24/11:30pm - - - - - NW 28 35 15 19 - - -
24/11:00pm - - - - - NW 24 33 13 18 - - -
24/10:30pm - - - - - NW 28 39 15 21 - - -
24/10:00pm - - - - - NW 30 39 16 21 - - -
24/09:30pm - - - - - NW 26 35 14 19 - - -
24/09:00pm - - - - - NW 28 37 15 20 - - -
24/08:30pm - - - - - NW 28 35 15 19 - - -
24/08:00pm - - - - - NW 24 32 13 17 - - -
24/07:30pm - - - - - NW 28 39 15 21 - - -
24/07:00pm - - - - - NW 28 37 15 20 - - -
24/06:30pm - - - - - NW 30 37 16 20 - - -
24/06:00pm - - - - - WNW 24 32 13 17 - - -
24/05:30pm - - - - - W 28 33 15 18 - - -
24/05:00pm - - - - - WNW 30 37 16 20 - - -
24/04:30pm - - - - - W 33 39 18 21 - - -
24/04:00pm - - - - - W 37 43 20 23 - - -
24/03:30pm - - - - - WNW 33 46 18 25 - - -
24/03:00pm - - - - - WNW 35 50 19 27 - - -
24/02:30pm - - - - - WNW 35 50 19 27 - - -
24/02:00pm - - - - - W 43 52 23 28 - - -
24/01:45pm - - - - - WNW 37 56 20 30 - - -
24/01:30pm - - - - - W 39 46 21 25 - - -
24/01:00pm - - - - - WNW 37 52 20 28 - - -
24/12:39pm - - - - - WNW 39 59 21 32 - - -
24/12:30pm - - - - - WNW 41 50 22 27 - - -
24/12:00pm - - - - - W 46 54 25 29 - - -
24/11:30am - - - - - WNW 43 54 23 29 - - -
24/11:18am - - - - - WNW 39 57 21 31 - - -
24/11:00am - - - - - WNW 37 46 20 25 - - -
24/10:30am - - - - - WNW 35 44 19 24 - - -
24/10:00am - - - - - NW 28 39 15 21 - - -
24/09:30am - - - - - NW 28 35 15 19 - - -
24/09:00am - - - - - NW 24 35 13 19 - - -
24/08:30am - - - - - NW 30 39 16 21 - - -
24/08:15am - - - - - WNW 37 46 20 25 - - -
24/08:00am - - - - - W 39 44 21 24 - - -
24/07:30am - - - - - W 41 46 22 25 - - -
24/07:00am - - - - - W 35 43 19 23 - - -
24/06:30am - - - - - WNW 33 44 18 24 - - -
24/06:00am - - - - - WNW 35 46 19 25 - - -
24/05:30am - - - - - WNW 30 41 16 22 - - -
24/05:00am - - - - - WNW 33 43 18 23 - - -
24/04:30am - - - - - WNW 30 41 16 22 - - -
24/04:00am - - - - - WNW 32 43 17 23 - - -
24/03:30am - - - - - WNW 33 43 18 23 - - -
24/03:00am - - - - - WNW 35 43 19 23 - - -
24/02:30am - - - - - WNW 35 46 19 25 - - -
24/02:00am - - - - - NW 32 41 17 22 - - -
24/01:30am - - - - - NW 30 39 16 21 - - -
24/01:00am - - - - - NW 30 39 16 21 - - -
24/12:30am - - - - - NW 32 44 17 24 - - -
24/12:00am - - - - - NW 28 39 15 21 - - -
 
Date/Time
EST
Temp
°C
App
Temp
°C
Dew
Point
°C
Rel
Hum
%
Delta-T
°C
Wind Press
QNH
hPa
Press
MSL
hPa
Rain since
9am
mm
Dir  Spd
km/h
Gust
km/h
Spd
kts
Gust
kts
23/11:30pm - - - - - WNW 30 39 16 21 - - -
23/11:00pm - - - - - WNW 30 41 16 22 - - -
23/10:30pm - - - - - NW 28 41 15 22 - - -
23/10:00pm - - - - - NW 26 33 14 18 - - -
23/09:30pm - - - - - NW 26 33 14 18 - - -
23/09:00pm - - - - - NW 32 41 17 22 - - -
23/08:30pm - - - - - NW 33 46 18 25 - - -
23/08:00pm - - - - - NW 28 44 15 24 - - -
23/07:30pm - - - - - NW 17 26 9 14 - - -
23/07:00pm - - - - - NW 17 24 9 13 - - -
23/06:30pm - - - - - WNW 24 30 13 16 - - -
23/06:00pm - - - - - SW 11 15 6 8 - - -
23/05:30pm - - - - - W 26 37 14 20 - - -
23/05:00pm - - - - - WNW 22 30 12 16 - - -
23/04:30pm - - - - - NW 19 24 10 13 - - -
23/04:00pm - - - - - NW 26 33 14 18 - - -
23/03:30pm - - - - - NW 20 26 11 14 - - -
23/03:00pm - - - - - WNW 24 33 13 18 - - -
23/02:30pm - - - - - WNW 26 33 14 18 - - -
23/02:00pm - - - - - WNW 35 50 19 27 - - -
23/01:49pm - - - - - NW 39 54 21 29 - - -
23/01:30pm - - - - - WNW 28 35 15 19 - - -
23/01:00pm - - - - - NW 24 32 13 17 - - -
23/12:30pm - - - - - NW 22 30 12 16 - - -
23/12:00pm - - - - - NNW 19 28 10 15 - - -
23/11:30am - - - - - W 24 33 13 18 - - -
23/11:00am - - - - - W 33 46 18 25 - - -
23/10:45am - - - - - NW 28 48 15 26 - - -
23/10:30am - - - - - WNW 26 39 14 21 - - -

Other formats

Comma delimited format used in spreadsheet applications
http://www.bom.gov.au/fwo/IDN60801/IDN60801.95995.axf

JavaScript Object Notation format (JSON) in row-major order
http://www.bom.gov.au/fwo/IDN60801/IDN60801.95995.json

Data quality

Most of these data are generated automatically and are frequently updated. Quality checks on data are not normally performed. It is possible for incorrect values to appear. Refer to information at About Latest Weather Observations and please check the disclaimer before using these data.